createdAt,value
2019-05-21T00:02:58.226Z,128.07
2019-05-21T00:08:21.982Z,100.67
2019-05-21T00:13:45.966Z,137.20
2019-05-21T00:19:09.579Z,139.37
2019-05-21T00:24:33.579Z,90.23
2019-05-21T00:30:33.736Z,63.40
2019-05-21T00:36:35.760Z,150.90
2019-05-21T00:42:05.113Z,103.33
2019-05-21T00:47:29.074Z,75.47
2019-05-21T00:52:52.930Z,125.57
2019-05-21T00:58:17.389Z,165.97
2019-05-21T01:03:43.284Z,109.67
2019-05-21T01:09:06.723Z,113.07
2019-05-21T01:14:30.582Z,123.67
2019-05-21T01:19:54.716Z,194.00
2019-05-21T01:25:18.509Z,132.67
2019-05-21T01:30:42.230Z,146.30
2019-05-21T01:36:06.830Z,114.33
2019-05-21T01:41:30.862Z,115.57
2019-05-21T01:46:55.807Z,101.77
2019-05-21T01:52:19.757Z,133.57
2019-05-21T01:57:44.670Z,176.97
2019-05-21T02:03:08.649Z,80.00
2019-05-21T02:08:33.466Z,120.13
2019-05-21T02:13:57.806Z,117.17
2019-05-21T02:19:22.297Z,147.67
2019-05-21T02:24:46.074Z,159.47
2019-05-21T02:30:11.073Z,113.47
2019-05-21T02:35:52.844Z,120.43
2019-05-21T02:41:01.253Z,127.00
2019-05-21T02:46:25.304Z,112.33
2019-05-21T02:51:49.250Z,118.47
2019-05-21T02:57:14.121Z,175.77
2019-05-21T03:02:40.395Z,141.73
2019-05-21T03:08:04.036Z,130.63
2019-05-21T03:13:28.466Z,115.20
2019-05-21T03:18:53.387Z,133.03
2019-05-21T03:24:18.083Z,130.97
2019-05-21T03:29:42.520Z,105.00
2019-05-21T03:35:08.352Z,87.97
2019-05-21T03:40:32.784Z,69.57
2019-05-21T03:45:56.995Z,103.03
2019-05-21T03:51:21.982Z,135.90
2019-05-21T03:56:46.145Z,95.60
2019-05-21T04:02:10.680Z,103.13
2019-05-21T04:07:35.489Z,104.00
2019-05-21T04:13:06.756Z,147.67
2019-05-21T04:18:37.280Z,94.93
2019-05-21T04:24:00.898Z,73.03
2019-05-21T04:29:25.691Z,55.90
2019-05-21T04:34:50.723Z,45.15
2019-05-21T04:40:14.482Z,39.17
2019-05-21T04:45:37.961Z,33.83
2019-05-21T04:51:02.855Z,33.20
2019-05-21T04:56:26.729Z,26.82
2019-05-21T05:01:51.866Z,23.53
2019-05-21T05:07:27.856Z,21.93
2019-05-21T05:12:41.012Z,20.62
2019-05-21T05:18:04.573Z,21.93
2019-05-21T05:23:29.367Z,20.17
2019-05-21T05:28:54.078Z,17.35
2019-05-21T05:34:17.963Z,16.42
2019-05-21T05:39:42.382Z,15.90
2019-05-21T05:45:08.400Z,15.68
2019-05-21T05:50:36.124Z,15.08
2019-05-21T05:56:00.319Z,21.73
2019-05-21T06:01:25.429Z,14.68
2019-05-21T06:06:50.172Z,18.95
2019-05-21T06:12:14.525Z,13.00
2019-05-21T06:17:39.195Z,14.07
2019-05-21T06:23:03.303Z,13.83
2019-05-21T06:28:27.069Z,17.20
2019-05-21T06:33:51.917Z,17.75
2019-05-21T06:39:15.973Z,15.98
2019-05-21T06:44:39.804Z,18.17
2019-05-21T06:50:03.645Z,18.55
2019-05-21T06:55:28.414Z,14.00
2019-05-21T07:00:52.113Z,15.70
2019-05-21T07:06:15.999Z,15.38
2019-05-21T07:11:40.686Z,16.30
2019-05-21T07:17:04.393Z,14.28
2019-05-21T07:22:28.889Z,11.93
2019-05-21T07:27:54.673Z,11.65
2019-05-21T07:33:19.451Z,10.15
2019-05-21T07:38:53.043Z,10.18
2019-05-21T07:44:09.609Z,11.45
2019-05-21T07:49:33.326Z,17.27
2019-05-21T07:54:58.425Z,10.53
2019-05-21T08:00:22.873Z,9.53
2019-05-21T08:05:47.515Z,9.33
2019-05-21T08:11:11.773Z,11.97
2019-05-21T08:16:36.305Z,10.60
2019-05-21T08:22:00.908Z,11.12
2019-05-21T08:27:25.527Z,6.95
2019-05-21T08:32:50.220Z,6.78
2019-05-21T08:38:14.564Z,11.10
2019-05-21T08:43:38.260Z,7.20
2019-05-21T08:49:01.828Z,6.97
2019-05-21T08:54:44.155Z,8.70
2019-05-21T09:00:08.945Z,8.10
2019-05-21T09:05:32.885Z,7.22
2019-05-21T09:10:57.447Z,7.70
2019-05-21T09:16:21.972Z,7.53
2019-05-21T09:21:46.724Z,6.05
2019-05-21T09:27:12.031Z,8.88
2019-05-21T09:32:36.670Z,7.72
2019-05-21T09:38:00.608Z,6.85
2019-05-21T09:43:24.309Z,8.10
2019-05-21T09:48:48.751Z,6.08
2019-05-21T09:54:13.456Z,5.97
2019-05-21T10:00:06.773Z,7.25
2019-05-21T10:05:30.639Z,7.03
2019-05-21T10:10:54.977Z,13.90
2019-05-21T10:16:18.790Z,6.62
2019-05-21T10:21:43.504Z,8.95
2019-05-21T10:27:07.216Z,6.62
2019-05-21T10:32:31.835Z,10.20
2019-05-21T10:37:56.731Z,7.53
2019-05-21T10:43:21.458Z,7.47
2019-05-21T10:48:46.293Z,6.25
2019-05-21T10:54:10.681Z,6.12
2019-05-21T10:59:34.532Z,7.45
2019-05-21T11:05:06.910Z,6.37
2019-05-21T11:10:30.443Z,6.78
2019-05-21T11:15:55.408Z,8.43
2019-05-21T11:21:19.193Z,8.73
2019-05-21T11:26:43.193Z,11.90
2019-05-21T11:32:08.005Z,7.53
2019-05-21T11:37:32.845Z,6.37
2019-05-21T11:42:57.471Z,6.58
2019-05-21T11:48:22.137Z,8.25
2019-05-21T11:53:46.542Z,11.33
2019-05-21T11:59:11.864Z,7.05
2019-05-21T12:04:37.458Z,6.70
2019-05-21T12:10:02.792Z,5.08
2019-05-21T12:15:26.551Z,8.35
2019-05-21T12:20:50.986Z,9.23
2019-05-21T12:26:15.678Z,8.03
2019-05-21T12:31:39.240Z,6.72
2019-05-21T12:37:05.080Z,6.70
2019-05-21T12:42:28.968Z,5.67
2019-05-21T12:47:52.699Z,5.65
2019-05-21T12:53:17.203Z,8.08
2019-05-21T12:58:41.615Z,6.42
2019-05-21T13:04:06.053Z,7.85
2019-05-21T13:09:32.774Z,6.95
2019-05-21T13:14:55.812Z,7.12
2019-05-21T13:20:20.905Z,6.10
2019-05-21T13:25:45.391Z,8.58
2019-05-21T13:31:09.889Z,5.03
2019-05-21T13:36:34.951Z,6.80
2019-05-21T13:41:58.503Z,5.78
2019-05-21T13:47:22.566Z,9.70
2019-05-21T13:52:46.461Z,4.67
2019-05-21T13:58:10.919Z,8.15
2019-05-21T14:03:35.727Z,5.25
2019-05-21T14:09:00.485Z,5.08
2019-05-21T14:14:26.653Z,11.50
2019-05-21T14:19:51.125Z,5.42
2019-05-21T14:25:16.187Z,4.85
2019-05-21T14:30:40.393Z,5.37
2019-05-21T14:36:03.952Z,10.68
2019-05-21T14:41:28.303Z,5.72
2019-05-21T14:46:52.383Z,6.78
2019-05-21T14:52:16.874Z,8.18
2019-05-21T14:57:41.540Z,6.15
2019-05-21T15:03:05.503Z,8.15
2019-05-21T15:08:30.375Z,6.42
2019-05-21T15:13:55.155Z,18.32
2019-05-21T15:19:19.744Z,10.70
2019-05-21T15:24:44.276Z,12.33
2019-05-21T15:30:08.969Z,13.10
2019-05-21T15:35:33.756Z,7.42
2019-05-21T15:41:09.839Z,9.88
2019-05-21T15:46:23.017Z,9.10
2019-05-21T15:51:46.841Z,8.68
2019-05-21T15:57:11.212Z,8.03
2019-05-21T16:02:35.646Z,10.25
2019-05-21T16:07:59.755Z,9.88
2019-05-21T16:13:24.380Z,11.00
2019-05-21T16:18:49.446Z,10.85
2019-05-21T16:24:14.062Z,12.28
2019-05-21T16:29:38.701Z,10.53
2019-05-21T16:35:02.968Z,13.25
2019-05-21T16:40:27.676Z,7.55
2019-05-21T16:45:52.429Z,7.17
2019-05-21T16:51:16.703Z,8.03
2019-05-21T16:56:42.311Z,7.72
2019-05-21T17:02:06.107Z,8.33
2019-05-21T17:07:30.716Z,10.25
2019-05-21T17:12:55.323Z,12.23
2019-05-21T17:18:20.017Z,8.40
2019-05-21T17:23:44.671Z,7.92
2019-05-21T17:29:08.401Z,6.72
2019-05-21T17:34:33.008Z,6.50
2019-05-21T17:39:57.471Z,8.55
2019-05-21T17:45:22.152Z,7.67
2019-05-21T17:50:47.167Z,11.63
2019-05-21T17:56:11.544Z,10.95
2019-05-21T18:01:35.418Z,11.65
2019-05-21T18:07:00.414Z,12.07
2019-05-21T18:12:32.121Z,9.60
2019-05-21T18:17:49.427Z,9.33
2019-05-21T18:23:14.963Z,9.65
2019-05-21T18:28:39.616Z,9.33
2019-05-21T18:34:04.818Z,8.20
2019-05-21T18:39:29.678Z,7.42
2019-05-21T18:44:53.774Z,8.40
2019-05-21T18:50:18.880Z,10.20
2019-05-21T18:55:42.613Z,7.92
2019-05-21T19:01:06.325Z,9.50
2019-05-21T19:06:31.527Z,11.20
2019-05-21T19:11:56.124Z,11.00
2019-05-21T19:17:34.330Z,10.55
2019-05-21T19:22:46.196Z,10.78
2019-05-21T19:28:10.744Z,14.10
2019-05-21T19:33:34.808Z,10.53
2019-05-21T19:38:59.528Z,15.15
2019-05-21T19:44:23.330Z,10.13
2019-05-21T19:49:47.291Z,10.65
2019-05-21T19:55:11.633Z,13.15
2019-05-21T20:00:40.475Z,14.00
2019-05-21T20:06:04.512Z,20.60
2019-05-21T20:11:29.091Z,11.22
2019-05-21T20:16:53.358Z,10.78
2019-05-21T20:22:17.727Z,8.88
2019-05-21T20:27:42.637Z,8.65
2019-05-21T20:33:07.576Z,9.58
2019-05-21T20:38:33.120Z,12.15
2019-05-21T20:43:59.409Z,16.52
2019-05-21T20:49:24.356Z,27.27
2019-05-21T20:54:50.425Z,31.90
2019-05-21T21:00:20.307Z,28.87
2019-05-21T21:05:45.019Z,25.55
2019-05-21T21:11:11.190Z,18.98
2019-05-21T21:16:36.901Z,17.75
2019-05-21T21:22:00.746Z,19.92
2019-05-21T21:27:24.976Z,12.85
2019-05-21T21:32:49.736Z,14.10
2019-05-21T21:38:17.397Z,12.10
2019-05-21T21:43:42.891Z,14.60
2019-05-21T21:49:09.253Z,10.25
2019-05-21T21:54:34.356Z,11.25
2019-05-21T21:59:58.229Z,10.25
2019-05-21T22:05:22.221Z,11.25
2019-05-21T22:10:46.117Z,10.25
2019-05-21T22:16:09.958Z,11.30
2019-05-21T22:21:34.415Z,11.80
2019-05-21T22:26:59.296Z,11.30
2019-05-21T22:32:23.403Z,11.85
2019-05-21T22:37:47.267Z,10.70
2019-05-21T22:43:11.465Z,13.08
2019-05-21T22:48:35.949Z,16.40
2019-05-21T22:54:00.248Z,15.85
2019-05-21T22:59:24.061Z,15.75
2019-05-21T23:04:49.666Z,21.42
2019-05-21T23:10:14.897Z,20.85
2019-05-21T23:15:40.386Z,28.10
2019-05-21T23:21:17.726Z,29.92
2019-05-21T23:26:42.744Z,35.50
2019-05-21T23:32:08.254Z,38.48
2019-05-21T23:37:33.273Z,43.55
2019-05-21T23:42:57.274Z,49.23
2019-05-21T23:48:21.160Z,50.48
2019-05-21T23:53:45.658Z,53.70
2019-05-21T23:59:09.636Z,52.35
